Terminal Aerodrome Forecast
Issued by NWS

Home | Current Version | Previous Version | Text Only | Print | Product List | Glossary On
Versions: 1 2 3 4 5 6 7 8 9 10 11 12 13 14 15 16
000
FTUS42 KMHX 281125
TAFPGV
TAF
KPGV 281125Z 2812/2912 VRB03KT P6SM SCT070
     FM281600 17007KT P6SM VCTS SCT035CB BKN070
     FM290100 15007KT P6SM BKN120
     FM290600 VRB03KT 6SM BR VCSH SCT015 BKN100
      AMD LTD TO CLD VIS AND WIND=

USA.gov is the U.S. government's official web portal to all federal, state and local government web resources and services.